Weather observations for the past three days for
Auburn Municipal Airport
| Date | Time (pdt) | Wind (kph) | Vis. (km) | Weather | Sky Cond. | Temperature (ºC) | Relative Humidity | Wind Chill (°C) | Heat Index (°C) | Pressure | Precipitation (cm) | ||||||
|---|---|---|---|---|---|---|---|---|---|---|---|---|---|---|---|---|---|
| Air | Dwpt | 6 hour | altimeter (cm) | sea level (mb) | 1 hr | 3 hr | 6 hr | ||||||||||
| Max. | Min. | ||||||||||||||||
| 01 | 09:55 | SE 15 G 28 | 16.09 | Overcast | BKN020 OVC024 | 15 | 10 | 72% | 76.28 | 0.0 | |||||||
| 01 | 09:35 | S 17 | 16.09 | Overcast | OVC020 | 15 | 10 | 72% | 76.25 | 0.0 | |||||||
| 01 | 09:15 | SE 17 G 28 | 16.09 | Overcast | OVC019 | 15 | 10 | 72% | 76.25 | 0.0 | |||||||
| 01 | 08:55 | SE 17 | 16.09 | Overcast | OVC018 | 14 | 10 | 77% | 76.23 | 0.0 | |||||||
| 01 | 08:35 | SE 19 | 16.09 | Overcast | OVC017 | 14 | 11 | 82% | 76.2 | 0.0 | |||||||
| 01 | 08:15 | SE 17 G 26 | 16.09 | Overcast | OVC016 | 14 | 11 | 82% | 76.17 | 0.0 | |||||||
| 01 | 07:55 | SE 19 G 28 | 16.09 | Mostly Cloudy | BKN014 | 13 | 11 | 88% | 76.15 | 0.0 | |||||||
| 01 | 07:35 | SE 15 G 24 | 16.09 | Overcast | OVC013 | 13 | 11 | 88% | 76.12 | 0.0 | |||||||
| 01 | 07:15 | SE 22 | 16.09 | Overcast | OVC011 | 13 | 12 | 94% | 76.1 | 0.0 | |||||||
| 01 | 06:55 | SE 13 G 26 | 16.09 | Overcast | OVC011 | 13 | 12 | 94% | 76.12 | 0.0 | |||||||
| 01 | 06:35 | SE 17 | 16.09 | Overcast | OVC010 | 13 | 12 | 94% | 76.1 | 0.0 | |||||||
| 01 | 06:15 | SE 15 G 31 | 16.09 | Overcast | OVC010 | 13 | 12 | 94% | 76.07 | 0.0 | |||||||
| 01 | 05:55 | SE 19 G 30 | 16.09 | Overcast | OVC009 | 13 | 12 | 94% | 76.07 | 0.0 | |||||||
| 01 | 05:35 | SE 15 | 16.09 | Overcast | OVC011 | 13 | 12 | 94% | 76.1 | 0.0 | |||||||
| 01 | 05:15 | SE 15 G 24 | 16.09 | Overcast | OVC012 | 13 | 12 | 94% | 76.1 | 0.0 | |||||||
| 01 | 04:55 | SE 13 | 16.09 | Overcast | BKN010 OVC013 | 13 | 12 | 94% | 76.07 | 0.0 | |||||||
| 01 | 04:35 | S 19 | 16.09 | Overcast | OVC008 | 12 | 12 | 100% | 76.05 | 0.0 | |||||||
| 01 | 04:15 | SE 15 | 16.09 | Overcast | OVC007 | 12 | 12 | 100% | 76.05 | 0.0 | |||||||
| 01 | 03:55 | SE 11 G 22 | 16.09 | Overcast | OVC007 | 12 | 12 | 100% | 76.05 | 0.0 | |||||||
| 01 | 03:35 | SE 19 | 16.09 | Overcast | OVC008 | 12 | 12 | 100% | 76.02 | 0.0 | |||||||
| 01 | 03:15 | SE 13 | 16.09 | Overcast | OVC009 | 12 | 12 | 100% | 76 | 0.0 | |||||||
| 01 | 02:55 | SE 11 | 16.09 | Mostly Cloudy | BKN010 BKN039 | 12 | 12 | 100% | 76.02 | 0.0 | |||||||
| 01 | 02:35 | Vrbl 11 G 24 | 16.09 | Partly Cloudy | SCT039 | 12 | 12 | 100% | 76.02 | 0.0 | |||||||
| 01 | 02:15 | SE 13 G 22 | 16.09 | Partly Cloudy | SCT040 | 12 | 12 | 100% | 76.02 | 0.0 | |||||||
| 01 | 01:55 | SE 13 G 24 | 16.09 | Partly Cloudy | SCT041 | 12 | 12 | 100% | 76.02 | 0.0 | |||||||
| 01 | 01:35 | Vrbl 11 G 22 | 16.09 | Mostly Cloudy | BKN040 | 13 | 12 | 94% | 76.05 | 0.0 | |||||||
| 01 | 01:15 | SE 17 | 16.09 | Partly Cloudy | SCT040 | 13 | 12 | 94% | 76.02 | 0.0 | |||||||
| 01 | 00:55 | SE 15 G 24 | 16.09 | Fair | CLR | 13 | 12 | 94% | 76.05 | 0.0 | |||||||
| 01 | 00:35 | SE 17 | 16.09 | Fair | CLR | 13 | 12 | 94% | 76.05 | 0.0 | |||||||
| 01 | 00:15 | SE 17 | 16.09 | Fair | CLR | 13 | 12 | 94% | 76.05 | 0.0 | |||||||
| 31 | 23:55 | SE 11 | 16.09 | Fair | CLR | 14 | 12 | 88% | 76.02 | 0.0 | |||||||
| 31 | 23:35 | SE 17 | 16.09 | Fair | CLR | 14 | 12 | 88% | 76.02 | 0.0 | |||||||
| 31 | 23:15 | SE 11 | 16.09 | Fair | CLR | 14 | 11 | 82% | 76 | 0.0 | |||||||
| 31 | 22:55 | SE 19 | 16.09 | Fair | CLR | 15 | 11 | 77% | 76 | 0.0 | |||||||
| 31 | 22:35 | SE 15 | 16.09 | Fair | CLR | 15 | 12 | 82% | 76 | 0.0 | |||||||
| 31 | 22:15 | SE 15 G 24 | 16.09 | A Few Clouds | FEW026 | 16 | 12 | 77% | 76 | 0.0 | |||||||
| 31 | 21:55 | SE 15 | 16.09 | A Few Clouds | FEW027 | 16 | 11 | 72% | 76 | 0.0 | |||||||
| 31 | 21:35 | SE 13 | 16.09 | Fair | CLR | 16 | 12 | 77% | 76 | 0.0 | |||||||
| 31 | 21:15 | SE 13 | 16.09 | A Few Clouds | FEW042 | 17 | 12 | 73% | 75.97 | 0.0 | |||||||
| 31 | 20:55 | S 15 | 16.09 | Partly Cloudy | SCT040 | 17 | 12 | 73% | 75.97 | 0.0 | |||||||
| 31 | 20:35 | S 15 | 16.09 | Mostly Cloudy | BKN038 | 17 | 12 | 73% | 75.95 | 0.0 | |||||||
| 31 | 20:15 | S 11 | 16.09 | Mostly Cloudy | BKN038 | 18 | 11 | 64% | 75.92 | 0.0 | |||||||
| 31 | 19:55 | S 17 | 16.09 | A Few Clouds | FEW040 | 19 | 11 | 60% | 75.92 | 0.0 | |||||||
| 31 | 19:35 | S 11 | 14.48 | Fair | CLR | 19 | 11 | 60% | 75.92 | 0.0 | |||||||
| 31 | 19:15 | S 7 | 16.09 | A Few Clouds | FEW028 | 21 | 11 | 53% | 75.9 | 0.0 | |||||||
| 31 | 18:55 | S 11 | 16.09 | A Few Clouds | FEW028 | 21 | 11 | 53% | 75.9 | 0.0 | |||||||
| 31 | 18:35 | S 11 | 16.09 | A Few Clouds | FEW030 | 22 | 11 | 50% | 75.9 | 0.0 | |||||||
| 31 | 18:15 | S 13 | 16.09 | Fair | CLR | 23 | 11 | 47% | 75.9 | 0.0 | |||||||
| 31 | 17:55 | S 13 | 16.09 | Fair | CLR | 24 | 10 | 41% | 25 | 75.9 | 0.0 | ||||||
| 31 | 17:35 | S 13 | 14.48 | Fair | CLR | 24 | 10 | 41% | 25 | 75.9 | 0.0 | ||||||
| 31 | 17:15 | S 11 | 14.48 | Fair | CLR | 25 | 9 | 36% | 26 | 75.9 | 0.0 | ||||||
| 31 | 16:35 | Vrbl 9 | 14.48 | Fair | CLR | 25 | 9 | 36% | 26 | 75.92 | 0.0 | ||||||
| 31 | 16:15 | S 7 G 20 | 16.09 | Fair | CLR | 25 | 9 | 36% | 26 | 75.95 | 0.0 | ||||||
| 31 | 15:55 | Vrbl 9 | 16.09 | Fair | CLR | 24 | 9 | 39% | 25 | 75.95 | 0.0 | ||||||
| 31 | 15:35 | Vrbl 6 G 20 | 14.48 | Fair | CLR | 25 | 9 | 36% | 26 | 75.97 | 0.0 | ||||||
| 31 | 15:15 | SW 15 G 26 | 16.09 | Fair | CLR | 25 | 8 | 34% | 26 | 75.97 | 0.0 | ||||||
| 31 | 14:55 | SW 13 | 16.09 | Fair | CLR | 25 | 9 | 36% | 26 | 75.97 | 0.0 | ||||||
| 31 | 14:35 | Vrbl 9 G 20 | 16.09 | Fair | CLR | 25 | 9 | 36% | 26 | 75.97 | 0.0 | ||||||
| 31 | 14:15 | Vrbl 9 | 16.09 | Fair | CLR | 24 | 9 | 39% | 25 | 76 | 0.0 | ||||||
| 31 | 13:55 | Vrbl 11 | 16.09 | Fair | CLR | 24 | 10 | 41% | 25 | 76 | 0.0 | ||||||
| 31 | 13:35 | SW 13 | 16.09 | Fair | CLR | 24 | 9 | 39% | 25 | 76.02 | 0.0 | ||||||
| 31 | 13:15 | S 17 | 16.09 | Fair | CLR | 24 | 10 | 41% | 25 | 76.02 | 0.0 | ||||||
| 31 | 12:55 | SW 15 G 26 | 14.48 | Fair | CLR | 24 | 10 | 41% | 25 | 76.02 | 0.0 | ||||||
| 31 | 12:35 | SW 13 | 14.48 | Fair | CLR | 23 | 10 | 44% | 76.02 | 0.0 | |||||||
| 31 | 12:15 | S 15 | 16.09 | Fair | CLR | 24 | 10 | 41% | 25 | 76.02 | 0.0 | ||||||
| 31 | 11:55 | Vrbl 11 | 14.48 | Fair | CLR | 23 | 10 | 44% | 76.02 | 0.0 | |||||||
| 31 | 11:35 | SW 13 | 16.09 | Fair | CLR | 23 | 10 | 44% | 76.02 | 0.0 | |||||||
| 31 | 11:15 | S 13 | 14.48 | Fair | CLR | 23 | 11 | 47% | 76 | 0.0 | |||||||
| 31 | 10:55 | S 11 | 16.09 | Fair | CLR | 23 | 10 | 44% | 76 | 0.0 | |||||||
| 31 | 10:35 | SW 7 | 16.09 | Fair | CLR | 23 | 10 | 44% | 76 | 0.0 | |||||||
| 31 | 10:15 | SW 9 | 16.09 | Fair | CLR | 22 | 10 | 47% | 76 | 0.0 | |||||||
| 31 | 09:55 | SW 7 | 16.09 | Fair | CLR | 23 | 8 | 38% | 76 | 0.0 | |||||||
| 31 | 09:35 | Calm | 16.09 | Fair | CLR | 22 | 8 | 41% | 76 | 0.0 | |||||||
| 31 | 09:15 | Calm | 16.09 | Fair | CLR | 21 | 7 | 40% | 76 | 0.0 | |||||||
| 31 | 08:55 | SE 7 | 16.09 | Fair | CLR | 21 | 7 | 40% | 76 | 0.0 | |||||||
| 31 | 08:35 | Calm | 16.09 | Fair | CLR | 20 | 8 | 46% | 76 | 0.0 | |||||||
| 31 | 08:15 | SE 6 | 16.09 | Fair | CLR | 19 | 8 | 49% | 76 | 0.0 | |||||||
| 31 | 07:55 | Calm | 16.09 | Fair | CLR | 17 | 8 | 56% | 75.97 | 0.0 | |||||||
| 31 | 07:35 | E 6 | 16.09 | Fair | CLR | 16 | 8 | 59% | 75.97 | 0.0 | |||||||
| 31 | 07:15 | Calm | 16.09 | Fair | CLR | 16 | 8 | 59% | 75.97 | 0.0 | |||||||
| 31 | 06:55 | S 7 | 16.09 | Fair | CLR | 16 | 8 | 59% | 75.95 | 0.0 | |||||||
| 31 | 06:35 | Vrbl 7 | 16.09 | A Few Clouds | FEW047 | 18 | 7 | 49% | 75.92 | 0.0 | |||||||
| 31 | 06:15 | E 15 | 16.09 | Fair | CLR | 18 | 7 | 49% | 75.9 | 0.0 | |||||||
| 31 | 05:55 | SE 9 | 16.09 | Fair | CLR | 18 | 7 | 49% | 75.9 | 0.0 | |||||||
| 31 | 05:35 | E 9 | 16.09 | Fair | CLR | 17 | 7 | 52% | 75.9 | 0.0 | |||||||
| 31 | 05:15 | SE 7 | 16.09 | Fair | CLR | 17 | 7 | 52% | 75.9 | 0.0 | |||||||
| 31 | 04:55 | E 9 | 16.09 | Fair | CLR | 17 | 7 | 52% | 75.9 | 0.0 | |||||||
| 31 | 04:35 | E 9 | 16.09 | Fair | CLR | 17 | 7 | 52% | 75.9 | 0.0 | |||||||
| 31 | 04:15 | E 9 | 16.09 | Fair | CLR | 18 | 7 | 49% | 75.9 | 0.0 | |||||||
| 31 | 03:55 | E 11 | 16.09 | Fair | CLR | 18 | 7 | 49% | 75.92 | 0.0 | |||||||
| 31 | 03:35 | E 9 | 16.09 | Fair | CLR | 18 | 7 | 49% | 75.92 | 0.0 | |||||||
| 31 | 03:15 | E 11 | 16.09 | Fair | CLR | 18 | 7 | 49% | 75.92 | 0.0 | |||||||
| 31 | 02:55 | E 11 | 16.09 | Fair | CLR | 18 | 7 | 49% | 75.9 | 0.0 | |||||||
| 31 | 02:35 | E 11 | 16.09 | Fair | CLR | 18 | 7 | 49% | 75.9 | 0.0 | |||||||
| 31 | 02:15 | E 13 | 16.09 | Fair | CLR | 19 | 7 | 46% | 75.92 | 0.0 | |||||||
| 31 | 01:55 | E 13 | 16.09 | Fair | CLR | 19 | 7 | 46% | 75.92 | 0.0 | |||||||
| 31 | 01:35 | E 13 | 16.09 | Fair | CLR | 19 | 7 | 46% | 75.92 | 0.0 | |||||||
| 31 | 01:15 | SE 15 | 16.09 | Fair | CLR | 20 | 7 | 43% | 75.92 | 0.0 | |||||||
| 31 | 00:55 | SE 13 | 16.09 | Fair | CLR | 20 | 7 | 43% | 75.92 | 0.0 | |||||||
| 31 | 00:35 | SE 7 | 16.09 | Fair | CLR | 18 | 7 | 49% | 75.95 | 0.0 | |||||||
| 31 | 00:15 | SE 6 | 16.09 | Fair | CLR | 19 | 7 | 46% | 75.92 | 0.0 | |||||||
| 30 | 23:55 | SE 11 | 16.09 | Fair | CLR | 20 | 7 | 43% | 75.92 | 0.0 | |||||||
| 30 | 23:35 | SE 9 | 16.09 | Fair | CLR | 20 | 7 | 43% | 75.95 | 0.0 | |||||||
| 30 | 23:15 | E 7 | 16.09 | A Few Clouds | FEW050 | 20 | 7 | 43% | 75.95 | 0.0 | |||||||
| 30 | 22:55 | SE 9 | 16.09 | A Few Clouds | FEW050 | 21 | 7 | 40% | 75.95 | 0.0 | |||||||
| 30 | 22:35 | SE 9 | 16.09 | Fair | CLR | 22 | 8 | 41% | 75.95 | 0.0 | |||||||
| 30 | 22:15 | SE 9 | 16.09 | Fair | CLR | 21 | 7 | 40% | 75.95 | 0.0 | |||||||
| 30 | 21:55 | SE 6 | 16.09 | Fair | CLR | 22 | 8 | 41% | 75.95 | 0.0 | |||||||
| 30 | 21:35 | S 7 | 16.09 | Fair | CLR | 23 | 9 | 41% | 75.95 | 0.0 | |||||||
| 30 | 21:15 | S 6 | 16.09 | Fair | CLR | 19 | 6 | 43% | 75.95 | 0.0 | |||||||
| 30 | 20:55 | Calm | 16.09 | Fair | CLR | 20 | 7 | 43% | 75.92 | 0.0 | |||||||
| 30 | 20:35 | Calm | 16.09 | Fair | CLR | 20 | 7 | 43% | 75.92 | 0.0 | |||||||
| 30 | 20:15 | Calm | 16.09 | Fair | CLR | 21 | 7 | 40% | 75.9 | 0.0 | |||||||
| 30 | 19:55 | Calm | 16.09 | Fair | CLR | 23 | 7 | 36% | 75.9 | 0.0 | |||||||
| 30 | 19:35 | W 7 | 16.09 | Fair | CLR | 26 | 8 | 32% | 26 | 75.9 | 0.0 | ||||||
| 30 | 19:15 | SW 7 | 16.09 | Fair | CLR | 27 | 5 | 24% | 26 | 75.9 | 0.0 | ||||||
| 30 | 18:55 | SW 9 | 16.09 | Fair | CLR | 28 | 4 | 21% | 27 | 75.9 | 0.0 | ||||||
| 30 | 18:35 | SW 9 | 16.09 | Fair | CLR | 28 | 5 | 23% | 27 | 75.9 | 0.0 | ||||||
| 30 | 18:15 | Vrbl 7 | 16.09 | Fair | CLR | 29 | 4 | 20% | 27 | 75.9 | 0.0 | ||||||
| 30 | 17:55 | W 7 | 16.09 | Fair | CLR | 29 | 4 | 20% | 27 | 75.9 | 0.0 | ||||||
| 30 | 17:35 | W 11 | 16.09 | Fair | CLR | 29 | 4 | 20% | 27 | 75.92 | 0.0 | ||||||
| 30 | 17:15 | SW 13 | 16.09 | Fair | CLR | 30 | 5 | 20% | 28 | 75.92 | 0.0 | ||||||
| 30 | 16:55 | Vrbl 7 | 16.09 | Fair | CLR | 30 | 5 | 20% | 28 | 75.92 | 0.0 | ||||||
| 30 | 16:35 | SW 7 G 19 | 16.09 | Fair | CLR | 30 | 4 | 19% | 28 | 75.95 | 0.0 | ||||||
| 30 | 16:15 | Vrbl 7 G 19 | 16.09 | Fair | CLR | 30 | 5 | 20% | 28 | 75.95 | 0.0 | ||||||
| 30 | 15:55 | Vrbl 7 | 16.09 | Fair | CLR | 29 | 6 | 23% | 28 | 75.97 | 0.0 | ||||||
| 30 | 15:35 | SW 11 | 16.09 | Fair | CLR | 30 | 6 | 22% | 28 | 75.97 | 0.0 | ||||||
| 30 | 15:15 | SW 15 | 16.09 | Fair | CLR | 30 | 7 | 24% | 28 | 76 | 0.0 | ||||||
| 30 | 14:55 | Vrbl 9 | 16.09 | Fair | CLR | 29 | 7 | 25% | 28 | 76.02 | 0.0 | ||||||
| 30 | 14:35 | Vrbl 7 | 16.09 | Fair | CLR | 29 | 7 | 25% | 28 | 76.02 | 0.0 | ||||||
| 30 | 14:15 | Vrbl 11 | 14.48 | Fair | CLR | 29 | 7 | 25% | 28 | 76.05 | 0.0 | ||||||
| 30 | 13:55 | SW 13 | 16.09 | Fair | CLR | 29 | 7 | 25% | 28 | 76.05 | 0.0 | ||||||
| 30 | 13:35 | Vrbl 9 G 19 | 16.09 | Fair | CLR | 29 | 7 | 25% | 28 | 76.05 | 0.0 | ||||||
| 30 | 13:15 | Vrbl 7 | 16.09 | Fair | CLR | 28 | 6 | 25% | 27 | 76.07 | 0.0 | ||||||
| 30 | 12:55 | Calm | 16.09 | Fair | CLR | 28 | 7 | 26% | 27 | 76.07 | 0.0 | ||||||
| 30 | 12:35 | Vrbl 7 | 16.09 | Fair | CLR | 28 | 7 | 26% | 27 | 76.07 | 0.0 | ||||||
| 30 | 12:15 | Calm | 16.09 | Fair | CLR | 27 | 7 | 28% | 26 | 76.07 | 0.0 | ||||||
| 30 | 11:55 | W 13 | 16.09 | Fair | CLR | 26 | 7 | 30% | 26 | 76.1 | 0.0 | ||||||
| 30 | 11:35 | SW 11 | 16.09 | Fair | CLR | 27 | 7 | 28% | 26 | 76.1 | 0.0 | ||||||
| 30 | 11:15 | W 7 | 14.48 | Fair | CLR | 26 | 7 | 30% | 26 | 76.1 | 0.0 | ||||||
| 30 | 10:55 | Vrbl 7 | 16.09 | Fair | CLR | 25 | 6 | 30% | 25 | 76.1 | 0.0 | ||||||
| 30 | 10:35 | W 7 | 16.09 | Fair | CLR | 25 | 6 | 30% | 25 | 76.1 | 0.0 | ||||||
| 30 | 10:15 | Vrbl 7 | 16.09 | Fair | CLR | 24 | 6 | 31% | 25 | 76.1 | 0.0 | ||||||
| 30 | 09:55 | Vrbl 6 | 16.09 | Fair | CLR | 24 | 6 | 31% | 25 | 76.1 | 0.0 | ||||||
| 30 | 09:35 | Calm | 16.09 | Fair | CLR | 23 | 6 | 33% | 76.1 | 0.0 | |||||||
| 30 | 09:15 | Calm | 16.09 | Fair | CLR | 22 | 5 | 33% | 76.1 | 0.0 | |||||||
| 30 | 08:55 | Calm | 16.09 | Fair | CLR | 22 | 5 | 33% | 76.1 | 0.0 | |||||||
| 30 | 08:35 | Calm | 16.09 | Fair | CLR | 21 | 5 | 35% | 76.1 | 0.0 | |||||||
| 30 | 08:15 | Calm | 16.09 | Fair | CLR | 20 | 5 | 38% | 76.1 | 0.0 | |||||||
| 30 | 07:55 | Calm | 16.09 | Fair | CLR | 20 | 5 | 38% | 76.07 | 0.0 | |||||||
| 30 | 07:35 | Calm | 16.09 | Fair | CLR | 18 | 5 | 43% | 76.07 | 0.0 | |||||||
| 30 | 07:15 | Calm | 16.09 | Fair | CLR | 14 | 4 | 51% | 76.07 | 0.0 | |||||||
| 30 | 06:55 | Calm | 16.09 | Fair | CLR | 12 | 4 | 58% | 76.05 | 0.0 | |||||||
| 30 | 06:35 | Calm | 16.09 | Fair | CLR | 12 | 4 | 58% | 76.05 | 0.0 | |||||||
| 30 | 06:15 | Calm | 16.09 | Fair | CLR | 12 | 4 | 58% | 76.02 | 0.0 | |||||||
| 30 | 05:55 | Calm | 16.09 | Fair | CLR | 15 | 4 | 48% | 76.02 | 0.0 | |||||||
| 30 | 05:35 | Calm | 16.09 | Fair | CLR | 14 | 4 | 51% | 76 | 0.0 | |||||||
| 30 | 05:15 | Calm | 16.09 | Fair | CLR | 15 | 4 | 48% | 76 | 0.0 | |||||||
| 30 | 04:55 | E 7 | 16.09 | Fair | CLR | 16 | 4 | 45% | 76 | 0.0 | |||||||
| 30 | 04:35 | E 7 | 16.09 | Fair | CLR | 17 | 4 | 42% | 76 | 0.0 | |||||||
| 30 | 04:15 | Calm | 16.09 | Fair | CLR | 18 | 4 | 40% | 76.02 | 0.0 | |||||||
| 30 | 03:55 | E 9 | 16.09 | Fair | CLR | 19 | 4 | 37% | 76 | 0.0 | |||||||
| 30 | 03:35 | E 9 | 16.09 | Fair | CLR | 19 | 4 | 37% | 76 | 0.0 | |||||||
| 30 | 03:15 | E 11 | 16.09 | Fair | CLR | 18 | 4 | 40% | 76 | 0.0 | |||||||
| 30 | 02:55 | E 6 | 16.09 | Fair | CLR | 18 | 4 | 40% | 76 | 0.0 | |||||||
| 30 | 02:35 | Calm | 16.09 | Fair | CLR | 19 | 3 | 35% | 76 | 0.0 | |||||||
| 30 | 02:15 | E 7 | 16.09 | Fair | CLR | 19 | 3 | 35% | 76 | 0.0 | |||||||
| 30 | 01:55 | E 17 | 16.09 | Fair | CLR | 19 | 3 | 35% | 76 | 0.0 | |||||||
| 30 | 01:35 | E 13 | 16.09 | Fair | CLR | 19 | 3 | 35% | 76.02 | 0.0 | |||||||
| 30 | 01:15 | E 13 | 16.09 | Fair | CLR | 19 | 3 | 35% | 76 | 0.0 | |||||||
| 30 | 00:55 | E 9 | 16.09 | Fair | CLR | 19 | 4 | 37% | 76.02 | 0.0 | |||||||
| 30 | 00:35 | E 11 | 16.09 | Fair | CLR | 19 | 4 | 37% | 76.02 | 0.0 | |||||||
| 30 | 00:15 | E 9 | 16.09 | Fair | CLR | 19 | 4 | 37% | 76.02 | 0.0 | |||||||
| 29 | 23:55 | SE 7 | 16.09 | Fair | CLR | 19 | 4 | 37% | 76.02 | 0.0 | |||||||
| 29 | 23:35 | E 11 | 16.09 | Fair | CLR | 20 | 4 | 35% | 76.05 | 0.0 | |||||||
| 29 | 23:15 | E 11 | 16.09 | Fair | CLR | 20 | 5 | 38% | 76.05 | 0.0 | |||||||
| 29 | 22:55 | E 11 | 16.09 | Fair | CLR | 20 | 5 | 38% | 76.05 | 0.0 | |||||||
| 29 | 22:35 | E 11 | 16.09 | Fair | CLR | 21 | 5 | 35% | 76.05 | 0.0 | |||||||
| 29 | 22:15 | E 9 | 16.09 | Fair | CLR | 21 | 6 | 38% | 76.05 | 0.0 | |||||||
| 29 | 21:55 | E 11 | 16.09 | Fair | CLR | 21 | 7 | 40% | 76.05 | 0.0 | |||||||
| 29 | 21:35 | SE 9 | 16.09 | Fair | CLR | 22 | 7 | 38% | 76.05 | 0.0 | |||||||
| 29 | 21:15 | SE 7 | 16.09 | Fair | CLR | 22 | 7 | 38% | 76.05 | 0.0 | |||||||
| 29 | 20:55 | S 6 | 16.09 | Fair | CLR | 23 | 6 | 33% | 76.02 | 0.0 | |||||||
| 29 | 20:35 | S 7 | 16.09 | Fair | CLR | 24 | 6 | 31% | 25 | 76.02 | 0.0 | ||||||
| 29 | 20:15 | S 7 | 16.09 | Fair | CLR | 24 | 5 | 29% | 25 | 76 | 0.0 | ||||||
| 29 | 19:55 | S 7 | 16.09 | Fair | CLR | 25 | 5 | 28% | 25 | 75.97 | 0.0 | ||||||
| 29 | 19:35 | S 11 | 16.09 | Fair | CLR | 26 | 4 | 24% | 26 | 75.97 | 0.0 | ||||||
| 29 | 19:15 | S 6 | 16.09 | Fair | CLR | 27 | 2 | 20% | 26 | 76 | 0.0 | ||||||
| 29 | 18:55 | SW 13 | 16.09 | Fair | CLR | 28 | 1 | 17% | 27 | 76 | 0.0 | ||||||
| 29 | 18:35 | SW 9 | 16.09 | Fair | CLR | 28 | 2 | 19% | 27 | 76 | 0.0 | ||||||
| 29 | 18:15 | Vrbl 11 | 16.09 | Fair | CLR | 29 | 3 | 19% | 27 | 75.97 | 0.0 | ||||||
| 29 | 17:55 | S 15 | 16.09 | Fair | CLR | 29 | 2 | 18% | 27 | 76 | 0.0 | ||||||
| 29 | 17:35 | SW 9 | 16.09 | Fair | CLR | 29 | 1 | 16% | 27 | 76 | 0.0 | ||||||
| 29 | 17:15 | SW 15 | 16.09 | Fair | CLR | 29 | 1 | 16% | 27 | 76 | 0.0 | ||||||
| 29 | 16:55 | S 15 | 16.09 | Fair | CLR | 30 | -1 | 13% | 28 | 76 | 0.0 | ||||||
| 29 | 16:35 | S 9 | 16.09 | Fair | CLR | 30 | 0 | 14% | 28 | 76.02 | 0.0 | ||||||
| 29 | 16:15 | Vrbl 11 G 22 | 16.09 | Fair | CLR | 30 | 0 | 14% | 28 | 76.02 | 0.0 | ||||||
| 29 | 15:55 | S 17 | 16.09 | Fair | CLR | 30 | -1 | 13% | 28 | 76.05 | 0.0 | ||||||
| 29 | 15:35 | SW 15 G 26 | 16.09 | Fair | CLR | 30 | 0 | 14% | 28 | 76.05 | 0.0 | ||||||
| 29 | 15:15 | S 15 | 16.09 | Fair | CLR | 30 | -1 | 13% | 28 | 76.1 | 0.0 | ||||||
| 29 | 14:55 | S 13 | 16.09 | Fair | CLR | 30 | -1 | 13% | 28 | 76.1 | 0.0 | ||||||
| 29 | 14:35 | Vrbl 9 G 20 | 16.09 | Fair | CLR | 29 | -1 | 14% | 27 | 76.12 | 0.0 | ||||||
| 29 | 14:15 | S 17 | 16.09 | Fair | CLR | 29 | 1 | 16% | 27 | 76.12 | 0.0 | ||||||
| 29 | 13:55 | S 17 G 26 | 16.09 | Fair | CLR | 29 | 3 | 19% | 27 | 76.15 | 0.0 | ||||||
| 29 | 13:35 | SW 19 | 16.09 | Fair | CLR | 29 | 2 | 18% | 27 | 76.15 | 0.0 | ||||||
| 29 | 13:15 | SE 11 G 24 | 16.09 | Fair | CLR | 29 | 3 | 19% | 27 | 76.15 | 0.0 | ||||||
| 29 | 12:55 | S 13 G 26 | 16.09 | Fair | CLR | 29 | 2 | 18% | 27 | 76.17 | 0.0 | ||||||
| 29 | 12:35 | SW 11 G 22 | 16.09 | Fair | CLR | 29 | 1 | 16% | 27 | 76.17 | 0.0 | ||||||
| 29 | 12:15 | S 15 | 16.09 | Fair | CLR | 28 | 2 | 19% | 27 | 76.2 | 0.0 | ||||||
| 29 | 11:55 | S 9 G 20 | 16.09 | Fair | CLR | 28 | 2 | 19% | 27 | 76.2 | 0.0 | ||||||
| 29 | 11:35 | Vrbl 9 G 20 | 16.09 | Fair | CLR | 28 | 4 | 21% | 27 | 76.2 | 0.0 | ||||||
| 29 | 11:15 | S 15 | 16.09 | Fair | CLR | 28 | 3 | 20% | 27 | 76.2 | 0.0 | ||||||
| 29 | 10:55 | Vrbl 11 G 24 | 16.09 | Fair | CLR | 28 | -1 | 15% | 27 | 76.2 | 0.0 | ||||||
| 29 | 10:35 | S 15 G 24 | 16.09 | Fair | CLR | 28 | -3 | 13% | 27 | 76.2 | 0.0 | ||||||
| 29 | 10:15 | S 11 | 16.09 | Fair | CLR | 27 | -1 | 16% | 26 | 76.2 | 0.0 | ||||||
| Date | Time (pdt) | Wind (kph) | Vis. (km) | Weather | Sky Cond. | Air | Dwpt | Max. | Min. | Relative Humidity | Wind Chill (°C) | Heat Index (°C) | altimeter (cm) | sea level (mb) | 1 hr | 3 hr | 6 hr |
| 6 hour | |||||||||||||||||
| Temperature (ºC) | Pressure | Precipitation (cm) | |||||||||||||||